Bhatinda Air Force Station


Codes: VIBT/BUP
Name: Bhatinda Air Force Station
City:
Country: India
Elevation: 662 ft.

Photos at Bhatinda Air Force Station


   Photos courtesy of SpottingLog. You can add your own sightings and photos by signing up for a free trial today.



No photos found.

Weather at Bhatinda Air Force Station


Time (UTC)DescriptionTempratureWindCloud coverageVisibilityPressureHumidity
19-Apr-2024 06:00Clear Sky32°C16 mph, SW0%10000m1005hPa31%
19-Apr-2024 09:00Clear Sky35°C20 mph, SW7%10000m1002hPa23%
19-Apr-2024 12:00Clear Sky34°C20 mph, SW6%10000m1000hPa13%
19-Apr-2024 15:00Clear Sky28°C9 mph, W1%10000m1003hPa23%
19-Apr-2024 18:00Clear Sky23°C7 mph, NW4%10000m1005hPa53%
19-Apr-2024 21:00Scattered Clouds22°C2 mph, N28%10000m1004hPa54%
20-Apr-2024 00:00Scattered Clouds22°C2 mph, NE44%10000m1004hPa55%
20-Apr-2024 03:00Broken Clouds27°C7 mph, W56%10000m1007hPa40%
20-Apr-2024 06:00Scattered Clouds33°C9 mph, W32%10000m1006hPa24%
20-Apr-2024 09:00Clear Sky35°C11 mph, W6%10000m1003hPa20%
20-Apr-2024 12:00Scattered Clouds34°C11 mph, NW40%10000m1002hPa20%
20-Apr-2024 15:00Few Clouds29°C7 mph, NW11%10000m1003hPa26%
20-Apr-2024 18:00Clear Sky26°C7 mph, N7%10000m1004hPa35%
20-Apr-2024 21:00Clear Sky24°C7 mph, NW0%10000m1004hPa42%
21-Apr-2024 00:00Clear Sky22°C7 mph, N0%10000m1005hPa51%
21-Apr-2024 03:00Clear Sky28°C7 mph, N0%10000m1006hPa37%
21-Apr-2024 06:00Clear Sky35°C9 mph, SW0%10000m1005hPa18%
21-Apr-2024 09:00Clear Sky37°C9 mph, SW2%10000m1003hPa13%
21-Apr-2024 12:00Clear Sky36°C11 mph, W2%10000m1002hPa14%
21-Apr-2024 15:00Clear Sky30°C7 mph, W5%10000m1004hPa20%
21-Apr-2024 18:00Few Clouds28°C7 mph, W15%10000m1005hPa24%
21-Apr-2024 21:00Broken Clouds26°C7 mph, N74%10000m1004hPa28%
22-Apr-2024 00:00Broken Clouds24°C4 mph, NE84%10000m1004hPa31%
22-Apr-2024 03:00Clear Sky32°C7 mph, W3%10000m1006hPa20%
22-Apr-2024 06:00Clear Sky36°C7 mph, W2%10000m1006hPa14%
22-Apr-2024 09:00Scattered Clouds38°C13 mph, W26%10000m1003hPa10%
22-Apr-2024 12:00Scattered Clouds37°C9 mph, W29%10000m1002hPa10%
22-Apr-2024 15:00Light Rain27°C9 mph, NW51%10000m1005hPa29%
22-Apr-2024 18:00Scattered Clouds26°C11 mph, NE28%10000m1006hPa34%
22-Apr-2024 21:00Clear Sky24°C9 mph, NE3%10000m1004hPa39%
23-Apr-2024 00:00Clear Sky22°C4 mph, NE3%10000m1005hPa45%
23-Apr-2024 03:00Clear Sky29°C4 mph, N4%10000m1006hPa27%
23-Apr-2024 06:00Clear Sky37°C7 mph, NW2%10000m1005hPa13%
23-Apr-2024 09:00Broken Clouds38°C9 mph, W68%10000m1002hPa10%
23-Apr-2024 12:00Broken Clouds37°C13 mph, NW83%10000m1001hPa10%
23-Apr-2024 15:00Few Clouds31°C9 mph, NW13%10000m1003hPa16%
23-Apr-2024 18:00Few Clouds28°C7 mph, N14%10000m1004hPa22%
23-Apr-2024 21:00Broken Clouds26°C4 mph, N53%10000m1003hPa26%
24-Apr-2024 00:00Scattered Clouds25°C2 mph, NW32%10000m1003hPa26%
24-Apr-2024 03:00Clear Sky31°C4 mph, N0%10000m1005hPa19%